Sochi International Airport
URSS : now visible

Airfield :











YOU CAN JOIN US ON...

 
LOGIN :

Register | Disclaimer

   EN    FR    IT 

 









Legend :    VFR   Marginal VFR   IFR   Intensive IFR   Very Intensive IFR
Visi :
Ceiling :
>= 8 km
>= 3000ft
5 to 8 km
1000 to 3000 ft
1500m to 5 km
500 to 1000 ft
800 to 1500m
200 to 500 ft
< 800m
< 200 ft
Symbols :   Thunderstorms  Fog  Heavy snow  Heavy precipitations  Wind > 20 kt







- Airport Elevation : 89 ft
- IATA code : AER


URSS - Sochi International

CURRENT METAR :
  • 152030Z 05003MPS 9999 BKN010 24/20 Q1009 R02/010070 R06/010070 NOSIG RMK R06/08004MPS MT OBSC QFE755

EXPIRED METARs :
  • 152000Z 05003MPS 9999 BKN010 24/20 Q1009 R02/010070 R06/010070 NOSIG RMK R06/08004MPS MT OBSC QFE755
  • 151930Z 04002MPS 9999 SCT011 23/20 Q1009 R02/010070 R06/010070 NOSIG RMK R06/07003MPS MT OBSC QFE755
  • 151900Z 05002MPS 9999 SCT011 23/19 Q1009 R02/010070 R06/010070 NOSIG RMK R06/07003MPS MT OBSC QFE755
  • 151830Z 06002MPS 9999 NSC 24/21 Q1008 R02/010070 R06/010070 NOSIG RMK R06/07003MPS QFE755
  • 151800Z 31001MPS 9999 NSC 25/23 Q1008 R02/010070 R06/010070 NOSIG RMK R06/00000MPS QFE754

TAF TAF URSS
Valid from the 15 at 21:00 until the 16 at 21:00 UTC


151956Z 1521/1621 05005MPS 9999 BKN020
TEMPO 1521/1606 BKN011
BECMG 1606/1607 27006G11MPS FEW030CB SCT100
BECMG 1617/1618 05005MPS BKN015
URRV FIR / Europe



MET'MAP, your aeronautical weather chart ! - Copyright ORBIFLY December 2007 - Disclaimer

ORBIFLY MET'MAP TEAM :

Programming & Development : Alexandra Zaïnal
Concept & Development : Baudouin d'Aumeries
Co-Development & Prog : Marc-Olivier Méhu
Technical & hardware support : Manuel Goepfert

Contact : metmap@orbifly.com




SOURCES & CREDITS :

   NOAA       Earth
Advisory